Latest Weather Observations for Ngayawili (Elcho Island)

IDD60801

Issued at 2:35 pm CST Wednesday 23 July 2014 (issued every 30 minutes, with the page automatically refreshed every 10 minutes)

About weather observations | Map of weather stations | Latest weather observations for NT | Other Formats
Station Details ID: 014517 Name: NGAYAWILI Lat: -12.00 Lon: 135.57 Height: 8.1 m
Data from the previous 72 hours. | See also: Recent months at Ngayawili (Elcho Island)
Date/Time
CST
Temp
°C
App
Temp
°C
Dew
Point
Rel
Hum
%
Delta-T
°C
Wind Press
QNH
hPa
Press
MSL
hPa
Rain
since 9 am
mm
Dir
 
Spd
km/h
Gust
km/h
Spd
kts
Gust
kts
23/02:30pm 28.1 28.4 19.6 60 5.5 ESE 17 26 9 14 1011.5 - 0.0
23/02:00pm 27.4 27.5 19.2 61 5.3 SE 17 26 9 14 1011.8 - 0.0
23/01:30pm 28.2 28.8 20.2 62 5.2 E 17 26 9 14 1012.1 - 0.0
23/01:00pm 28.2 29.3 20.5 63 5.1 ESE 15 26 8 14 1012.4 - 0.0
23/12:30pm 27.8 28.5 20.4 64 4.9 SE 17 30 9 16 1012.9 - 0.0
23/12:00pm 27.4 27.8 20.7 67 4.4 SE 19 32 10 17 1013.3 1013.2 0.0
23/11:30am 26.3 26.3 20.2 69 4.0 ESE 20 26 11 14 1014.0 - 0.0
23/11:00am 26.6 28.4 21.1 72 3.6 ESE 13 24 7 13 1014.4 - 0.0
23/10:30am 25.5 26.5 21.0 76 3.0 ESE 17 28 9 15 1014.8 - 0.0
23/10:00am 24.5 25.3 20.6 79 2.5 SE 17 26 9 14 1015.0 - 0.0
23/09:30am 24.0 25.8 21.1 84 1.9 SE 13 22 7 12 1015.3 - 0.0
23/09:00am 22.3 23.6 20.9 92 0.9 SE 15 20 8 11 1015.3 1015.2 0.0
23/08:30am 21.2 23.0 21.2 100 0.0 SSE 13 19 7 10 1015.3 - 0.0
23/08:00am 19.9 21.9 19.9 100 0.0 SE 9 13 5 7 1015.2 - 0.0
23/07:30am 19.0 20.5 19.0 100 0.0 SE 9 13 5 7 1015.0 - 0.0
23/07:00am 18.5 19.8 18.5 100 0.0 SE 9 11 5 6 1014.6 - 0.0
23/06:30am 18.6 19.6 18.6 100 0.0 SE 11 15 6 8 1014.5 - 0.0
23/06:00am 18.6 20.0 18.6 100 0.0 SE 9 13 5 7 1014.4 1014.3 0.0
23/05:30am 18.7 19.7 18.7 100 0.0 SE 11 15 6 8 1014.1 - 0.0
23/05:00am 18.5 19.8 18.5 100 0.0 SE 9 13 5 7 1013.8 - 0.0
23/04:30am 18.1 19.6 18.1 100 0.0 SE 7 9 4 5 1013.9 - 0.0
23/04:00am 17.7 19.2 17.7 100 0.0 SE 6 7 3 4 1013.9 - 0.0
23/03:30am 18.4 20.2 18.4 100 0.0 SE 6 7 3 4 1014.0 - 0.0
23/03:00am 18.9 21.0 18.9 100 0.0 SE 6 7 3 4 1014.1 1014.0 0.0
23/02:30am 19.2 21.4 19.2 100 0.0 SE 6 7 3 4 1014.3 - 0.0
23/02:00am 19.9 22.2 19.9 100 0.0 SE 7 9 4 5 1014.4 - 0.0
23/01:30am 20.1 22.2 20.1 100 0.0 SE 9 13 5 7 1014.7 - 0.0
23/01:00am 20.0 22.4 20.0 100 0.0 ESE 7 9 4 5 1014.9 - 0.0
23/12:30am 20.2 22.6 20.0 99 0.1 ESE 7 9 4 5 1015.1 - 0.0
23/12:00am 20.5 23.0 20.2 98 0.2 ESE 7 11 4 6 1015.3 1015.2 0.0
 
Date/Time
CST
Temp
°C
App
Temp
°C
Dew
Point
Rel
Hum
%
Delta-T
°C
Wind Press
QNH
hPa
Press
MSL
hPa
Rain
since 9 am
mm
Dir
 
Spd
km/h
Gust
km/h
Spd
kts
Gust
kts
22/11:30pm 20.5 22.7 19.7 95 0.5 ESE 7 11 4 6 1015.2 - 0.0
22/11:00pm 21.0 23.2 19.6 92 0.9 ESE 7 9 4 5 1015.5 - 0.0
22/10:30pm 21.6 23.5 19.7 89 1.2 ESE 9 11 5 6 1015.6 - 0.0
22/10:00pm 21.9 23.6 19.3 85 1.7 ESE 9 13 5 7 1015.4 - 0.0
22/09:30pm 22.4 24.2 18.8 80 2.3 ESE 7 13 4 7 1015.2 - 0.0
22/09:00pm 22.5 23.6 18.1 76 2.7 E 9 11 5 6 1014.9 1014.8 0.0
22/08:30pm 23.2 24.1 17.6 71 3.5 E 9 11 5 6 1014.6 - 0.0
22/08:00pm 23.7 24.2 17.4 68 3.9 ESE 11 15 6 8 1014.2 - 0.0
22/07:30pm 23.8 24.3 17.5 68 3.9 ESE 11 15 6 8 1014.0 - 0.0
22/07:00pm 24.2 24.9 17.9 68 3.9 E 11 17 6 9 1013.6 - 0.0
22/06:30pm 24.8 25.4 17.8 65 4.4 ESE 11 17 6 9 1013.3 - 0.0
22/06:00pm 25.8 25.9 17.4 59 5.2 ESE 13 22 7 12 1013.1 1013.0 0.0
22/05:30pm 26.7 26.8 17.5 57 5.8 ESE 13 19 7 10 1012.7 - 0.0
22/05:00pm 27.2 26.4 17.1 54 6.3 E 17 32 9 17 1012.6 - 0.0
22/04:30pm 28.0 27.5 17.8 54 6.5 ESE 17 28 9 15 1012.6 - 0.0
22/04:00pm 27.9 26.3 17.4 52 6.6 ESE 22 33 12 18 1012.4 - 0.0
22/03:30pm 28.5 27.7 18.0 53 6.7 ESE 19 30 10 16 1012.4 - 0.0
22/03:00pm 28.3 27.4 17.8 53 6.7 ESE 19 32 10 17 1012.7 1012.6 0.0
22/02:30pm 27.7 27.3 18.1 56 6.1 E 17 30 9 16 1012.9 - 0.0
22/02:00pm 28.7 28.4 19.1 56 6.2 ESE 19 28 10 15 1013.2 - 0.0
22/01:30pm 27.9 27.3 18.9 58 5.8 ESE 20 32 11 17 1013.7 - 0.0
22/01:00pm 28.1 28.2 19.9 61 5.4 ESE 19 32 10 17 1014.2 - 0.0
22/12:30pm 27.4 27.9 20.0 64 4.8 ESE 17 28 9 15 1014.8 - 0.0
22/12:00pm 26.7 26.5 19.3 64 4.8 ESE 19 28 10 15 1015.4 1015.3 0.0
22/11:30am 27.4 28.2 20.7 67 4.4 ESE 17 28 9 15 1015.8 - 0.0
22/11:00am 25.6 25.7 19.9 70 3.7 E 19 32 10 17 1016.2 - 0.0
22/10:30am 25.4 26.6 20.6 75 3.1 ESE 15 28 8 15 1016.6 - 0.0
22/10:00am 24.0 25.9 20.5 81 2.3 SE 11 20 6 11 1017.0 - 0.0
22/09:30am 23.9 25.1 20.6 82 2.2 SE 15 28 8 15 1017.2 - 0.0
22/09:00am 22.2 24.1 21.4 95 0.5 ESE 13 22 7 12 1017.3 1017.2 0.0
22/08:30am 20.2 22.3 20.2 100 0.0 SE 9 15 5 8 1017.0 - 0.0
22/08:00am 19.5 21.7 19.5 100 0.0 SE 7 11 4 6 1016.8 - 0.0
22/07:30am 19.0 20.9 19.0 100 0.0 SSE 7 9 4 5 1016.6 - 0.0
22/07:00am 18.2 19.8 18.2 100 0.0 SSE 7 9 4 5 1016.0 - 0.0
22/06:30am 17.5 19.0 17.5 100 0.0 SSE 6 9 3 5 1015.8 - 0.0
22/06:00am 17.7 19.1 17.7 100 0.0 SSE 7 9 4 5 1015.6 1015.5 0.0
22/05:30am 17.8 19.4 17.8 100 0.0 SSE 6 7 3 4 1015.6 - 0.0
22/05:00am 18.6 21.7 18.6 100 0.0 CALM 0 4 0 2 1015.7 - 0.0
22/04:30am 19.3 21.5 19.3 100 0.0 SSE 6 9 3 5 1015.5 - 0.0
22/04:00am 19.7 21.6 19.7 100 0.0 SSE 9 15 5 8 1015.4 - 0.0
22/03:30am 19.9 21.1 19.9 100 0.0 SSE 13 17 7 9 1015.3 - 0.0
22/03:00am 19.7 21.2 19.7 100 0.0 SSE 11 15 6 8 1015.4 1015.3 0.0
22/02:30am 19.5 21.3 19.5 100 0.0 SE 9 13 5 7 1015.6 - 0.0
22/02:00am 19.6 21.8 19.6 100 0.0 SE 7 9 4 5 1016.0 - 0.0
22/01:30am 20.1 22.6 19.9 99 0.1 SE 6 6 3 3 1016.0 - 0.0
22/01:00am 20.7 23.5 20.4 98 0.2 SE 6 11 3 6 1015.9 - 0.0
22/12:30am 21.0 23.5 20.3 96 0.4 SE 7 11 4 6 1016.1 - 0.0
22/12:00am 21.5 24.1 20.5 94 0.6 SE 7 11 4 6 1016.1 1016.0 0.0
 
Date/Time
CST
Temp
°C
App
Temp
°C
Dew
Point
Rel
Hum
%
Delta-T
°C
Wind Press
QNH
hPa
Press
MSL
hPa
Rain
since 9 am
mm
Dir
 
Spd
km/h
Gust
km/h
Spd
kts
Gust
kts
21/11:30pm 21.7 24.2 20.3 92 0.9 SE 7 11 4 6 1016.1 - 0.0
21/11:00pm 22.1 24.3 20.4 90 1.1 ESE 9 15 5 8 1016.2 - 0.0
21/10:30pm 22.5 24.7 20.4 88 1.4 ESE 9 13 5 7 1016.3 - 0.0
21/10:00pm 22.9 25.0 20.2 85 1.7 ESE 9 15 5 8 1016.4 - 0.0
21/09:30pm 23.4 25.1 20.1 82 2.1 ESE 11 17 6 9 1016.3 - 0.0
21/09:00pm 23.7 25.3 20.0 80 2.4 ESE 11 17 6 9 1016.2 1016.1 0.0
21/08:30pm 23.9 25.4 19.8 78 2.6 ESE 11 20 6 11 1015.9 - 0.0
21/08:00pm 24.2 25.7 19.7 76 2.9 ESE 11 19 6 10 1015.5 - 0.0
21/07:30pm 24.4 25.6 19.0 72 3.4 ESE 11 19 6 10 1015.1 - 0.0
21/07:00pm 24.8 26.0 19.0 70 3.7 ESE 11 20 6 11 1014.8 - 0.0
21/06:30pm 25.2 26.2 18.6 67 4.2 E 11 19 6 10 1014.2 - 0.0
21/06:00pm 26.2 27.1 18.3 61 5.0 E 11 19 6 10 1013.9 1013.8 0.0
21/05:30pm 27.4 27.5 18.4 58 5.7 E 15 28 8 15 1013.6 - 0.0
21/05:00pm 27.9 27.9 18.0 55 6.3 E 15 24 8 13 1013.3 - 0.0
21/04:30pm 28.3 28.2 17.8 53 6.7 ESE 15 26 8 14 1013.2 - 0.0
21/04:00pm 28.8 28.5 18.3 53 6.7 ESE 17 26 9 14 1013.1 - 0.0
21/03:30pm 28.5 28.0 17.7 52 6.8 ESE 17 26 9 14 1013.1 - 0.0
21/03:00pm 28.6 28.2 18.1 53 6.7 E 17 30 9 16 1013.3 1013.2 0.0
21/02:30pm 28.5 28.5 18.9 56 6.2 E 17 30 9 16 1013.5 - 0.0
21/02:00pm 28.5 28.2 19.1 56 6.1 E 19 30 10 16 1013.8 - 0.0
21/01:30pm 28.8 29.3 20.0 59 5.8 E 17 30 9 16 1014.2 - 0.0
21/01:00pm 28.1 27.9 19.3 58 5.7 SE 19 30 10 16 1014.4 - 0.0
21/12:30pm 27.2 26.9 19.5 62 5.0 E 20 35 11 19 1014.8 - 0.0
21/12:00pm 27.7 28.0 20.5 65 4.7 ESE 19 30 10 16 1015.1 1015.0 0.0
21/11:30am 27.3 27.7 19.9 64 4.8 E 17 26 9 14 1015.5 - 0.0
21/11:00am 27.0 26.7 19.1 62 5.1 ESE 19 28 10 15 1015.8 - 0.0
21/10:30am 26.5 27.2 19.6 66 4.5 ESE 15 26 8 14 1015.9 - 0.0
21/10:00am 25.6 27.1 20.6 74 3.3 ESE 13 22 7 12 1016.1 - 0.0
21/09:30am 24.5 27.5 22.0 86 1.7 SE 9 17 5 9 1016.3 - 0.0
21/09:00am 23.1 25.3 21.9 93 0.8 SE 13 19 7 10 1016.3 1016.2 0.0
21/08:30am 21.7 23.8 21.7 100 0.0 SE 13 20 7 11 1016.1 - 0.0
21/08:00am 20.3 22.5 20.3 100 0.0 SE 9 13 5 7 1015.8 - 0.0
21/07:30am 19.2 20.5 19.2 100 0.0 SSE 11 13 6 7 1015.6 - 0.0
21/07:00am 18.8 19.9 18.8 100 0.0 SSE 11 13 6 7 1015.3 - 0.0
21/06:30am 18.6 20.0 18.6 100 0.0 SSE 9 13 5 7 1015.1 - 0.0
21/06:00am 18.8 19.9 18.8 100 0.0 SE 11 13 6 7 1014.8 1014.7 0.0
21/05:30am 18.6 20.0 18.6 100 0.0 SSE 9 11 5 6 1014.9 - 0.0
21/05:00am 18.8 20.3 18.8 100 0.0 SSE 9 11 5 6 1014.9 - 0.0
21/04:30am 18.8 20.3 18.8 100 0.0 SSE 9 11 5 6 1015.0 - 0.0
21/04:00am 18.8 20.3 18.8 100 0.0 SSE 9 11 5 6 1015.1 - 0.0
21/03:30am 18.8 20.2 18.6 99 0.1 SSE 9 11 5 6 1015.2 - 0.0
21/03:00am 19.0 20.4 18.7 98 0.2 SSE 9 11 5 6 1015.3 1015.2 0.0
21/02:30am 19.5 21.0 19.0 97 0.3 SSE 9 11 5 6 1015.5 - 0.0
21/02:00am 19.9 21.0 18.9 94 0.6 SSE 11 13 6 7 1015.5 - 0.0
21/01:30am 20.5 22.2 19.3 93 0.8 SE 9 13 5 7 1015.7 - 0.0
21/01:00am 21.0 22.7 19.3 90 1.1 SSE 9 13 5 7 1015.9 - 0.0
21/12:30am 21.2 22.4 19.1 88 1.3 SE 11 17 6 9 1016.0 - 0.0
21/12:00am 21.4 22.2 19.1 87 1.5 ESE 13 17 7 9 1016.0 1015.9 0.0
 
Date/Time
CST
Temp
°C
App
Temp
°C
Dew
Point
Rel
Hum
%
Delta-T
°C
Wind Press
QNH
hPa
Press
MSL
hPa
Rain
since 9 am
mm
Dir
 
Spd
km/h
Gust
km/h
Spd
kts
Gust
kts
20/11:30pm 21.5 22.3 19.1 86 1.5 SE 13 20 7 11 1016.2 - 0.0
20/11:00pm 21.8 22.6 19.0 84 1.8 SE 13 19 7 10 1016.3 - 0.0
20/10:30pm 22.2 22.6 19.0 82 2.0 ESE 15 20 8 11 1016.2 - 0.0
20/10:00pm 22.5 22.8 18.7 79 2.4 ESE 15 20 8 11 1016.1 - 0.0
20/09:30pm 22.8 23.4 18.6 77 2.6 ESE 13 20 7 11 1016.0 - 0.0
20/09:00pm 23.2 22.9 18.3 74 3.1 ESE 17 28 9 15 1015.8 1015.7 0.0
20/08:30pm 23.4 23.9 18.3 73 3.2 ESE 13 24 7 13 1015.5 - 0.0
20/08:00pm 23.8 24.3 18.4 72 3.4 SE 13 20 7 11 1015.1 - 0.0
20/07:30pm 24.3 24.9 18.7 71 3.6 ESE 13 20 7 11 1014.6 - 0.0
20/07:00pm 24.5 24.6 18.4 69 3.9 E 15 24 8 13 1014.2 - 0.0
20/06:30pm 24.9 25.6 18.8 69 3.9 E 13 20 7 11 1013.7 - 0.0
20/06:00pm 25.6 26.0 19.0 67 4.2 E 15 26 8 14 1013.4 1013.3 0.0
20/05:30pm 26.5 27.1 19.4 65 4.6 E 15 30 8 16 1013.1 - 0.0
20/05:00pm 27.4 28.1 19.7 63 5.0 E 15 24 8 13 1012.9 - 0.0
20/04:30pm 28.5 29.5 19.4 57 5.9 E 13 20 7 11 1012.8 - 0.0
20/04:00pm 29.0 30.2 19.0 54 6.5 ESE 11 19 6 10 1012.7 - 0.0
20/03:30pm 29.0 29.1 18.4 52 6.8 E 15 24 8 13 1012.7 - 0.0
20/03:00pm 29.4 29.8 19.1 54 6.7 ESE 15 22 8 12 1012.7 1012.6 0.0

Other Formats:

Comma delimited format used in spreadsheet applications
http://www.bom.gov.au/fwo/IDD60801/IDD60801.95146.axf

JavaScript Object Notation format (JSON) in row-major order
http://www.bom.gov.au/fwo/IDD60801/IDD60801.95146.json